createdAt,value
2018-02-13T00:00:41.244Z,0
2018-02-13T00:01:41.026Z,0
2018-02-13T00:02:41.264Z,0
2018-02-13T00:03:40.994Z,0
2018-02-13T00:04:41.852Z,0
2018-02-13T00:05:41.588Z,0
2018-02-13T00:06:41.074Z,0
2018-02-13T00:07:41.611Z,0
2018-02-13T00:08:41.675Z,0
2018-02-13T00:09:41.068Z,0
2018-02-13T00:10:41.909Z,0
2018-02-13T00:11:41.559Z,0
2018-02-13T00:12:41.657Z,0
2018-02-13T00:13:41.377Z,0
2018-02-13T00:14:41.681Z,0
2018-02-13T00:15:41.400Z,0
2018-02-13T00:16:41.535Z,0
2018-02-13T00:17:41.699Z,0
2018-02-13T00:18:41.440Z,0
2018-02-13T00:19:41.160Z,0
2018-02-13T00:20:41.172Z,0
2018-02-13T00:21:41.508Z,0
2018-02-13T00:22:41.192Z,0
2018-02-13T00:23:41.210Z,0
2018-02-13T00:24:41.494Z,0
2018-02-13T00:25:41.790Z,0
2018-02-13T00:26:42.132Z,0
2018-02-13T00:27:41.816Z,0
2018-02-13T00:28:42.099Z,0
2018-02-13T00:29:41.835Z,0
2018-02-13T00:30:41.560Z,0
2018-02-13T00:31:41.899Z,0
2018-02-13T00:32:41.573Z,0
2018-02-13T00:33:41.868Z,0
2018-02-13T00:34:41.593Z,0
2018-02-13T00:35:41.886Z,0
2018-02-13T00:36:41.617Z,0
2018-02-13T00:37:41.622Z,0
2018-02-13T00:38:41.353Z,0
2018-02-13T00:39:41.924Z,0
2018-02-13T00:40:42.236Z,0
2018-02-13T00:41:41.665Z,0
2018-02-13T00:42:42.285Z,0
2018-02-13T00:43:41.403Z,0
2018-02-13T00:44:41.978Z,0
2018-02-13T00:45:41.994Z,0
2018-02-13T00:46:42.002Z,0
2018-02-13T00:47:41.737Z,0
2018-02-13T00:48:41.741Z,0
2018-02-13T00:49:42.032Z,0
2018-02-13T00:50:42.312Z,0
2018-02-13T00:51:41.825Z,0
2018-02-13T00:52:42.054Z,0
2018-02-13T00:53:41.786Z,0
2018-02-13T00:54:41.531Z,0
2018-02-13T00:55:41.540Z,0
2018-02-13T00:56:42.095Z,0
2018-02-13T00:57:42.390Z,0
2018-02-13T00:58:42.121Z,0
2018-02-13T00:59:42.137Z,0
2018-02-13T01:00:41.291Z,0
2018-02-13T01:01:42.163Z,0
2018-02-13T01:02:41.666Z,0
2018-02-13T01:03:42.171Z,0
2018-02-13T01:04:42.466Z,0
2018-02-13T01:05:41.903Z,0
2018-02-13T01:06:42.196Z,0
2018-02-13T01:07:41.974Z,0
2018-02-13T01:08:41.665Z,0
2018-02-13T01:09:41.666Z,0
2018-02-13T01:10:41.394Z,0
2018-02-13T01:11:41.965Z,0
2018-02-13T01:12:41.844Z,0
2018-02-13T01:13:42.265Z,0
2018-02-13T01:14:41.714Z,0
2018-02-13T01:15:41.722Z,0
2018-02-13T01:16:42.300Z,0
2018-02-13T01:17:41.791Z,0
2018-02-13T01:18:42.312Z,0
2018-02-13T01:19:42.054Z,0
2018-02-13T01:20:42.057Z,0
2018-02-13T01:21:42.073Z,0
2018-02-13T01:22:42.413Z,0
2018-02-13T01:23:41.521Z,0
2018-02-13T01:24:42.098Z,0
2018-02-13T01:25:42.387Z,0
2018-02-13T01:26:41.846Z,0
2018-02-13T01:27:42.738Z,0
2018-02-13T01:28:42.693Z,0
2018-02-13T01:29:42.429Z,0
2018-02-13T01:30:42.200Z,0
2018-02-13T01:31:41.892Z,0
2018-02-13T01:32:42.175Z,0
2018-02-13T01:33:41.903Z,0
2018-02-13T01:34:42.198Z,0
2018-02-13T01:35:42.500Z,0
2018-02-13T01:36:42.490Z,0
2018-02-13T01:37:42.602Z,0
2018-02-13T01:38:42.528Z,0
2018-02-13T01:39:42.247Z,0
2018-02-13T01:40:42.534Z,0
2018-02-13T01:41:42.266Z,0
2018-02-13T01:42:42.090Z,0
2018-02-13T01:43:42.282Z,0
2018-02-13T01:44:42.855Z,0
2018-02-13T01:45:42.306Z,0
2018-02-13T01:46:42.032Z,0
2018-02-13T01:47:42.373Z,0
2018-02-13T01:48:42.619Z,0
2018-02-13T01:49:42.628Z,0
2018-02-13T01:50:42.633Z,0
2018-02-13T01:51:42.366Z,0
2018-02-13T01:52:42.219Z,0
2018-02-13T01:53:42.100Z,0
2018-02-13T01:54:42.394Z,0
2018-02-13T01:55:42.685Z,0
2018-02-13T01:56:42.141Z,0
2018-02-13T01:57:42.474Z,0
2018-02-13T01:58:42.438Z,0
2018-02-13T01:59:42.721Z,0
2018-02-13T02:00:42.174Z,0
2018-02-13T02:01:42.184Z,0
2018-02-13T02:02:42.471Z,0
2018-02-13T02:03:42.479Z,0
2018-02-13T02:04:43.061Z,0
2018-02-13T02:05:42.499Z,0
2018-02-13T02:06:42.787Z,0
2018-02-13T02:07:42.289Z,0
2018-02-13T02:08:41.969Z,0
2018-02-13T02:09:42.265Z,0
2018-02-13T02:10:42.840Z,0
2018-02-13T02:11:42.852Z,0
2018-02-13T02:12:42.058Z,0
2018-02-13T02:13:42.583Z,0
2018-02-13T02:14:42.345Z,0
2018-02-13T02:15:42.316Z,0
2018-02-13T02:16:42.898Z,0
2018-02-13T02:17:42.390Z,0
2018-02-13T02:18:42.630Z,0
2018-02-13T02:19:42.652Z,0
2018-02-13T02:20:42.657Z,0
2018-02-13T02:21:42.660Z,0
2018-02-13T02:22:42.949Z,0
2018-02-13T02:23:42.971Z,0
2018-02-13T02:24:42.689Z,0
2018-02-13T02:25:42.137Z,0
2018-02-13T02:26:42.712Z,0
2018-02-13T02:27:43.064Z,0
2018-02-13T02:28:42.166Z,0
2018-02-13T02:29:42.461Z,0
2018-02-13T02:30:42.766Z,0
2018-02-13T02:31:43.045Z,0
2018-02-13T02:32:43.105Z,0
2018-02-13T02:33:43.067Z,0
2018-02-13T02:34:43.191Z,0
2018-02-13T02:35:42.817Z,0
2018-02-13T02:36:43.107Z,0
2018-02-13T02:37:43.434Z,0
2018-02-13T02:38:42.830Z,0
2018-02-13T02:39:43.122Z,0
2018-02-13T02:40:42.849Z,0
2018-02-13T02:41:42.865Z,0
2018-02-13T02:42:42.306Z,0
2018-02-13T02:43:43.178Z,0
2018-02-13T02:44:43.290Z,0
2018-02-13T02:45:42.965Z,0
2018-02-13T02:46:43.205Z,0
2018-02-13T02:47:42.689Z,0
2018-02-13T02:48:43.210Z,0
2018-02-13T02:49:42.943Z,0
2018-02-13T02:50:43.236Z,0
2018-02-13T02:51:42.689Z,0
2018-02-13T02:52:43.582Z,0
2018-02-13T02:53:42.984Z,0
2018-02-13T02:54:43.306Z,0
2018-02-13T02:55:43.286Z,0
2018-02-13T02:56:42.873Z,0
2018-02-13T02:57:43.079Z,0
2018-02-13T02:58:43.043Z,0
2018-02-13T02:59:43.047Z,0
2018-02-13T03:00:43.050Z,0
2018-02-13T03:01:43.353Z,0
2018-02-13T03:02:43.402Z,0
2018-02-13T03:03:43.647Z,0
2018-02-13T03:04:43.380Z,0
2018-02-13T03:05:42.818Z,0
2018-02-13T03:06:43.398Z,0
2018-02-13T03:07:43.459Z,0
2018-02-13T03:08:43.136Z,0
2018-02-13T03:09:43.420Z,0
2018-02-13T03:10:43.520Z,0
2018-02-13T03:11:43.440Z,0
2018-02-13T03:12:42.937Z,0
2018-02-13T03:13:43.749Z,0
2018-02-13T03:14:42.912Z,0
2018-02-13T03:15:43.183Z,0
2018-02-13T03:16:43.208Z,0
2018-02-13T03:17:42.984Z,0
2018-02-13T03:18:43.243Z,0
2018-02-13T03:19:44.193Z,0
2018-02-13T03:20:42.968Z,0
2018-02-13T03:21:43.537Z,0
2018-02-13T03:22:43.036Z,0
2018-02-13T03:23:43.554Z,0
2018-02-13T03:24:43.565Z,0
2018-02-13T03:25:43.857Z,0
2018-02-13T03:26:43.308Z,0
2018-02-13T03:27:43.468Z,0
2018-02-13T03:28:43.337Z,0
2018-02-13T03:29:43.059Z,0
2018-02-13T03:30:43.361Z,0
2018-02-13T03:31:43.924Z,0
2018-02-13T03:32:43.974Z,0
2018-02-13T03:33:43.373Z,0
2018-02-13T03:34:43.384Z,0
2018-02-13T03:35:43.695Z,0
2018-02-13T03:36:43.126Z,0
2018-02-13T03:37:43.750Z,0
2018-02-13T03:38:43.442Z,0
2018-02-13T03:39:43.713Z,0
2018-02-13T03:40:43.729Z,0
2018-02-13T03:41:43.453Z,0
2018-02-13T03:42:44.073Z,0
2018-02-13T03:43:43.758Z,0
2018-02-13T03:44:44.457Z,0
2018-02-13T03:45:43.777Z,0
2018-02-13T03:46:43.503Z,0
2018-02-13T03:47:43.564Z,0
2018-02-13T03:48:42.970Z,0
2018-02-13T03:49:43.541Z,0
2018-02-13T03:50:43.538Z,0
2018-02-13T03:51:43.838Z,0
2018-02-13T03:52:43.894Z,0
2018-02-13T03:53:43.573Z,0
2018-02-13T03:54:43.299Z,0
2018-02-13T03:55:43.313Z,0
2018-02-13T03:56:43.038Z,0
2018-02-13T03:57:43.894Z,0
2018-02-13T03:58:43.960Z,0
2018-02-13T03:59:43.630Z,0
2018-02-13T04:00:43.638Z,0
2018-02-13T04:01:43.381Z,0
2018-02-13T04:02:43.946Z,0
2018-02-13T04:03:43.950Z,0
2018-02-13T04:04:43.681Z,0
2018-02-13T04:05:43.709Z,0
2018-02-13T04:06:43.710Z,0
2018-02-13T04:07:43.706Z,0
2018-02-13T04:08:43.822Z,0
2018-02-13T04:09:43.728Z,0
2018-02-13T04:10:44.018Z,0
2018-02-13T04:11:43.750Z,0
2018-02-13T04:12:44.325Z,0
2018-02-13T04:13:43.775Z,0
2018-02-13T04:14:44.341Z,0
2018-02-13T04:15:43.800Z,0
2018-02-13T04:16:44.080Z,0
2018-02-13T04:17:43.525Z,0
2018-02-13T04:18:44.102Z,0
2018-02-13T04:19:44.398Z,0
2018-02-13T04:20:44.406Z,0
2018-02-13T04:21:44.139Z,0
2018-02-13T04:22:44.423Z,0
2018-02-13T04:23:44.475Z,0
2018-02-13T04:24:44.167Z,0
2018-02-13T04:25:43.886Z,0
2018-02-13T04:26:43.898Z,0
2018-02-13T04:27:43.925Z,0
2018-02-13T04:28:44.247Z,0
2018-02-13T04:29:43.922Z,0
2018-02-13T04:30:43.669Z,0
2018-02-13T04:31:43.955Z,0
2018-02-13T04:32:43.956Z,0
2018-02-13T04:33:44.281Z,0
2018-02-13T04:34:44.263Z,0
2018-02-13T04:35:43.987Z,0
2018-02-13T04:36:44.287Z,0
2018-02-13T04:37:44.001Z,0
2018-02-13T04:38:43.882Z,0
2018-02-13T04:39:43.742Z,0
2018-02-13T04:40:44.354Z,0
2018-02-13T04:41:44.616Z,0
2018-02-13T04:42:43.776Z,0
2018-02-13T04:43:44.496Z,0
2018-02-13T04:44:44.072Z,0
2018-02-13T04:45:44.641Z,0
2018-02-13T04:46:43.810Z,0
2018-02-13T04:47:43.824Z,0
2018-02-13T04:48:44.728Z,0
2018-02-13T04:49:43.592Z,0
2018-02-13T04:50:44.132Z,0
2018-02-13T04:51:44.138Z,0
2018-02-13T04:52:44.168Z,0
2018-02-13T04:53:44.160Z,0
2018-02-13T04:54:44.320Z,0
2018-02-13T04:55:44.181Z,0
2018-02-13T04:56:44.483Z,0
2018-02-13T04:57:44.197Z,0
2018-02-13T04:58:44.486Z,0
2018-02-13T04:59:44.507Z,0
2018-02-13T05:00:44.275Z,0
2018-02-13T05:01:44.253Z,0
2018-02-13T05:02:44.530Z,0
2018-02-13T05:03:44.259Z,0
2018-02-13T05:04:44.037Z,0
2018-02-13T05:05:43.995Z,0
2018-02-13T05:06:44.860Z,0
2018-02-13T05:07:44.301Z,0
2018-02-13T05:08:44.305Z,0
2018-02-13T05:09:44.375Z,0
2018-02-13T05:10:44.325Z,0
2018-02-13T05:11:44.346Z,0
2018-02-13T05:12:44.356Z,0
2018-02-13T05:13:44.636Z,0
2018-02-13T05:14:44.700Z,0
2018-02-13T05:15:44.654Z,0
2018-02-13T05:16:44.686Z,0
2018-02-13T05:17:45.014Z,0
2018-02-13T05:18:44.692Z,0
2018-02-13T05:19:44.954Z,0
2018-02-13T05:20:44.428Z,0
2018-02-13T05:21:44.446Z,0
2018-02-13T05:22:44.465Z,0
2018-02-13T05:23:45.019Z,0
2018-02-13T05:24:44.745Z,0
2018-02-13T05:25:45.034Z,0
2018-02-13T05:26:44.504Z,0
2018-02-13T05:27:44.493Z,0
2018-02-13T05:28:44.781Z,0
2018-02-13T05:29:44.677Z,0
2018-02-13T05:30:44.802Z,0
2018-02-13T05:31:44.271Z,0
2018-02-13T05:32:44.545Z,0
2018-02-13T05:33:44.839Z,0
2018-02-13T05:34:44.569Z,0
2018-02-13T05:35:44.603Z,0
2018-02-13T05:36:44.921Z,0
2018-02-13T05:37:44.589Z,0
2018-02-13T05:38:44.320Z,0
2018-02-13T05:39:44.329Z,0
2018-02-13T05:40:44.907Z,0
2018-02-13T05:41:45.198Z,0
2018-02-13T05:42:45.014Z,0
2018-02-13T05:43:44.934Z,0
2018-02-13T05:44:44.808Z,0
2018-02-13T05:45:44.686Z,0
2018-02-13T05:46:45.241Z,0
2018-02-13T05:47:44.694Z,0
2018-02-13T05:48:44.993Z,0
2018-02-13T05:49:45.323Z,0
2018-02-13T05:50:44.997Z,0
2018-02-13T05:51:44.728Z,0
2018-02-13T05:52:45.018Z,0
2018-02-13T05:53:44.202Z,0
2018-02-13T05:54:45.526Z,0
2018-02-13T05:55:44.799Z,0
2018-02-13T05:56:44.778Z,0
2018-02-13T05:57:44.503Z,0
2018-02-13T05:58:44.806Z,0
2018-02-13T05:59:44.575Z,0
2018-02-13T06:00:45.516Z,0
2018-02-13T06:01:44.261Z,0
2018-02-13T06:02:45.126Z,0
2018-02-13T06:03:44.565Z,0
2018-02-13T06:04:45.191Z,0
2018-02-13T06:05:44.867Z,0
2018-02-13T06:06:44.883Z,0
2018-02-13T06:07:45.175Z,0
2018-02-13T06:08:45.182Z,0
2018-02-13T06:09:45.232Z,0
2018-02-13T06:10:45.197Z,0
2018-02-13T06:11:45.230Z,0
2018-02-13T06:12:45.230Z,0
2018-02-13T06:13:44.939Z,0
2018-02-13T06:14:45.235Z,0
2018-02-13T06:15:45.289Z,0
2018-02-13T06:16:45.250Z,0
2018-02-13T06:17:44.702Z,0
2018-02-13T06:18:45.269Z,0
2018-02-13T06:19:45.279Z,0
2018-02-13T06:20:45.344Z,0
2018-02-13T06:21:44.752Z,0
2018-02-13T06:22:44.464Z,0
2018-02-13T06:23:44.756Z,0
2018-02-13T06:24:45.060Z,0
2018-02-13T06:25:45.345Z,0
2018-02-13T06:26:45.064Z,0
2018-02-13T06:27:45.356Z,0
2018-02-13T06:28:45.086Z,0
2018-02-13T06:29:45.378Z,0
2018-02-13T06:30:45.495Z,0
2018-02-13T06:31:45.676Z,0
2018-02-13T06:32:45.129Z,0
2018-02-13T06:33:45.134Z,0
2018-02-13T06:34:45.719Z,0
2018-02-13T06:35:44.921Z,0
2018-02-13T06:36:45.747Z,0
2018-02-13T06:37:45.455Z,0
2018-02-13T06:38:45.189Z,0
2018-02-13T06:39:45.208Z,0
2018-02-13T06:40:44.987Z,0
2018-02-13T06:41:45.493Z,0
2018-02-13T06:42:45.270Z,0
2018-02-13T06:43:45.513Z,0
2018-02-13T06:44:44.960Z,0
2018-02-13T06:45:45.581Z,0
2018-02-13T06:46:44.985Z,0
2018-02-13T06:47:45.836Z,0
2018-02-13T06:48:45.279Z,0
2018-02-13T06:49:44.739Z,0
2018-02-13T06:50:45.922Z,0
2018-02-13T06:51:45.320Z,0
2018-02-13T06:52:45.620Z,0
2018-02-13T06:53:45.327Z,0
2018-02-13T06:54:45.617Z,0
2018-02-13T06:55:45.678Z,0
2018-02-13T06:56:45.362Z,0
2018-02-13T06:57:45.667Z,0
2018-02-13T06:58:44.813Z,0
2018-02-13T06:59:45.383Z,0
2018-02-13T07:00:45.730Z,0
2018-02-13T07:01:45.747Z,0
2018-02-13T07:02:45.417Z,0
2018-02-13T07:03:44.859Z,0
2018-02-13T07:04:45.439Z,0
2018-02-13T07:05:45.449Z,0
2018-02-13T07:06:46.019Z,0
2018-02-13T07:07:45.476Z,0
2018-02-13T07:08:45.757Z,0
2018-02-13T07:09:45.205Z,0
2018-02-13T07:10:45.937Z,0
2018-02-13T07:11:45.797Z,0
2018-02-13T07:12:45.793Z,0
2018-02-13T07:13:45.522Z,0
2018-02-13T07:14:45.816Z,0
2018-02-13T07:15:45.690Z,0
2018-02-13T07:16:45.379Z,0
2018-02-13T07:17:45.276Z,0
2018-02-13T07:18:45.578Z,0
2018-02-13T07:19:45.576Z,0
2018-02-13T07:20:45.367Z,0
2018-02-13T07:21:45.603Z,0
2018-02-13T07:22:46.177Z,0
2018-02-13T07:23:45.350Z,0
2018-02-13T07:24:46.240Z,0
2018-02-13T07:25:45.637Z,0
2018-02-13T07:26:45.644Z,0
2018-02-13T07:27:45.952Z,0
2018-02-13T07:28:46.243Z,0
2018-02-13T07:29:45.418Z,0
2018-02-13T07:30:46.044Z,0
2018-02-13T07:31:46.072Z,0
2018-02-13T07:32:45.992Z,0
2018-02-13T07:33:45.996Z,0
2018-02-13T07:34:46.004Z,0
2018-02-13T07:35:45.508Z,0
2018-02-13T07:36:45.748Z,0
2018-02-13T07:37:46.034Z,0
2018-02-13T07:38:46.324Z,5
2018-02-13T07:39:45.490Z,5
2018-02-13T07:40:46.121Z,5
2018-02-13T07:41:45.799Z,5
2018-02-13T07:42:46.180Z,5
2018-02-13T07:43:45.811Z,5
2018-02-13T07:44:45.831Z,5
2018-02-13T07:45:46.242Z,5
2018-02-13T07:46:46.120Z,5
2018-02-13T07:47:45.848Z,5
2018-02-13T07:48:45.870Z,5
2018-02-13T07:49:45.869Z,5
2018-02-13T07:50:46.188Z,5
2018-02-13T07:51:45.610Z,5
2018-02-13T07:52:45.896Z,5
2018-02-13T07:53:45.914Z,5
2018-02-13T07:54:45.642Z,5
2018-02-13T07:55:46.539Z,5
2018-02-13T07:56:46.506Z,5
2018-02-13T07:57:45.942Z,5
2018-02-13T07:58:45.952Z,5
2018-02-13T07:59:45.966Z,5
2018-02-13T08:00:46.266Z,5
2018-02-13T08:01:45.988Z,5
2018-02-13T08:02:45.991Z,5
2018-02-13T08:03:46.015Z,5
2018-02-13T08:04:46.297Z,5
2018-02-13T08:05:46.356Z,5
2018-02-13T08:06:46.036Z,5
2018-02-13T08:07:46.702Z,5
2018-02-13T08:08:46.057Z,5
2018-02-13T08:09:45.497Z,5
2018-02-13T08:10:45.852Z,5
2018-02-13T08:11:46.661Z,5
2018-02-13T08:12:45.535Z,5
2018-02-13T08:13:46.383Z,5
2018-02-13T08:14:46.676Z,5
2018-02-13T08:15:46.451Z,5
2018-02-13T08:16:45.846Z,5
2018-02-13T08:17:46.139Z,5
2018-02-13T08:18:46.721Z,5
2018-02-13T08:19:46.725Z,5
2018-02-13T08:20:46.318Z,5
2018-02-13T08:21:45.615Z,5
2018-02-13T08:22:46.759Z,5
2018-02-13T08:23:46.197Z,5
2018-02-13T08:24:45.938Z,5
2018-02-13T08:25:46.225Z,5
2018-02-13T08:26:45.666Z,5
2018-02-13T08:27:46.238Z,5
2018-02-13T08:28:46.809Z,5
2018-02-13T08:29:46.594Z,5
2018-02-13T08:30:46.838Z,5
2018-02-13T08:31:46.275Z,5
2018-02-13T08:32:46.289Z,5
2018-02-13T08:33:46.295Z,5
2018-02-13T08:34:46.611Z,5
2018-02-13T08:35:46.367Z,5
2018-02-13T08:36:46.899Z,5
2018-02-13T08:40:23.173Z,5
2018-02-13T08:41:03.460Z,5
2018-02-13T08:42:03.138Z,5
2018-02-13T08:43:03.432Z,5
2018-02-13T08:44:03.511Z,5
2018-02-13T08:45:03.789Z,5
2018-02-13T08:46:03.520Z,5
2018-02-13T08:47:03.749Z,5
2018-02-13T08:48:22.397Z,5
2018-02-13T08:49:04.049Z,5
2018-02-13T08:50:03.524Z,5
2018-02-13T08:51:03.843Z,5
2018-02-13T08:52:03.269Z,5
2018-02-13T08:53:03.816Z,5
2018-02-13T08:54:03.352Z,5
2018-02-13T08:55:03.275Z,5
2018-02-13T08:56:03.657Z,5
2018-02-13T08:57:04.133Z,5
2018-02-13T08:58:03.665Z,5
2018-02-13T08:59:03.308Z,5
2018-02-13T09:00:03.598Z,5
2018-02-13T09:01:03.375Z,5
2018-02-13T09:02:03.616Z,5
2018-02-13T09:03:03.641Z,5
2018-02-13T09:04:03.640Z,5
2018-02-13T09:05:03.659Z,5
2018-02-13T09:06:03.712Z,5
2018-02-13T09:07:03.389Z,5
2018-02-13T09:08:03.686Z,5
2018-02-13T09:09:03.694Z,5
2018-02-13T09:10:03.418Z,5
2018-02-13T09:11:03.764Z,5
2018-02-13T09:12:03.434Z,5
2018-02-13T09:13:04.009Z,5
2018-02-13T09:14:03.738Z,5
2018-02-13T09:15:04.310Z,5
2018-02-13T09:16:04.039Z,5
2018-02-13T09:17:03.485Z,5
2018-02-13T09:18:03.214Z,5
2018-02-13T09:19:03.524Z,5
2018-02-13T09:20:03.808Z,5
2018-02-13T09:21:03.574Z,5
2018-02-13T09:22:03.819Z,5
2018-02-13T09:23:04.109Z,5
2018-02-13T09:24:03.559Z,5
2018-02-13T09:25:03.860Z,5
2018-02-13T09:26:03.909Z,5
2018-02-13T09:27:04.161Z,5
2018-02-13T09:28:04.185Z,5
2018-02-13T09:29:03.611Z,5
2018-02-13T09:30:03.622Z,5
2018-02-13T09:31:04.204Z,5
2018-02-13T09:32:04.213Z,5
2018-02-13T09:33:03.933Z,5
2018-02-13T09:34:04.242Z,5
2018-02-13T09:35:03.391Z,5
2018-02-13T09:36:04.394Z,5
2018-02-13T09:37:03.714Z,5
2018-02-13T09:38:03.988Z,5
2018-02-13T09:39:03.722Z,5
2018-02-13T09:40:04.004Z,5
2018-02-13T09:41:04.645Z,5
2018-02-13T09:42:04.028Z,5
2018-02-13T09:43:04.034Z,5
2018-02-13T09:44:03.767Z,5
2018-02-13T09:45:03.775Z,5
2018-02-13T09:46:04.431Z,5
2018-02-13T09:47:03.807Z,5
2018-02-13T09:48:03.812Z,5
2018-02-13T09:49:04.664Z,5
2018-02-13T09:50:04.389Z,5
2018-02-13T09:51:04.268Z,5
2018-02-13T09:52:03.852Z,5
2018-02-13T09:53:03.865Z,5
2018-02-13T09:54:03.590Z,5
2018-02-13T09:55:04.161Z,5
2018-02-13T09:56:04.329Z,5
2018-02-13T09:57:03.910Z,5
2018-02-13T09:58:04.197Z,5
2018-02-13T09:59:04.206Z,5
2018-02-13T10:00:04.496Z,5
2018-02-13T10:01:04.276Z,5
2018-02-13T10:02:04.239Z,5
2018-02-13T10:03:04.528Z,5
2018-02-13T10:04:04.827Z,5
2018-02-13T10:05:04.549Z,5
2018-02-13T10:06:04.713Z,5
2018-02-13T10:07:04.007Z,5
2018-02-13T10:08:04.590Z,5
2018-02-13T10:09:04.595Z,5
2018-02-13T10:10:04.041Z,5
2018-02-13T10:11:04.969Z,5
2018-02-13T10:12:04.639Z,5
2018-02-13T10:13:04.355Z,5
2018-02-13T10:14:04.929Z,5
2018-02-13T10:15:04.376Z,5
2018-02-13T10:16:04.436Z,5
2018-02-13T10:17:04.965Z,5
2018-02-13T10:18:04.406Z,5
2018-02-13T10:19:04.707Z,5
2018-02-13T10:20:04.449Z,5
2018-02-13T10:21:04.443Z,5
2018-02-13T10:22:04.453Z,5
2018-02-13T10:23:04.465Z,5
2018-02-13T10:24:04.760Z,5
2018-02-13T10:25:04.485Z,5
2018-02-13T10:26:05.218Z,10
2018-02-13T10:27:04.526Z,10
2018-02-13T10:28:04.241Z,10
2018-02-13T10:29:04.533Z,10
2018-02-13T10:30:04.540Z,10
2018-02-13T10:31:04.602Z,10
2018-02-13T10:32:04.679Z,10
2018-02-13T10:33:04.570Z,10
2018-02-13T10:34:04.865Z,10
2018-02-13T10:35:04.596Z,10
2018-02-13T10:36:04.607Z,10
2018-02-13T10:37:04.903Z,10
2018-02-13T10:38:04.352Z,10
2018-02-13T10:39:04.360Z,10
2018-02-13T10:40:05.029Z,10
2018-02-13T10:41:04.438Z,10
2018-02-13T10:42:04.683Z,10
2018-02-13T10:43:04.401Z,10
2018-02-13T10:44:04.981Z,10
2018-02-13T10:45:05.003Z,10
2018-02-13T10:46:04.514Z,10
2018-02-13T10:47:04.727Z,10
2018-02-13T10:48:04.507Z,10
2018-02-13T10:49:04.752Z,10
2018-02-13T10:50:04.508Z,10
2018-02-13T10:51:04.774Z,10
2018-02-13T10:52:04.785Z,10
2018-02-13T10:53:05.079Z,10
2018-02-13T10:54:05.100Z,10
2018-02-13T10:55:05.108Z,10
2018-02-13T10:56:04.551Z,10
2018-02-13T10:57:04.559Z,10
2018-02-13T10:58:04.610Z,10
2018-02-13T10:59:04.651Z,10
2018-02-13T11:00:05.158Z,10
2018-02-13T11:01:05.232Z,10
2018-02-13T11:02:04.911Z,10
2018-02-13T11:03:05.484Z,10
2018-02-13T11:04:04.927Z,10
2018-02-13T11:05:05.218Z,10
2018-02-13T11:06:05.252Z,10
2018-02-13T11:07:05.540Z,10
2018-02-13T11:08:05.259Z,10
2018-02-13T11:09:04.982Z,10
2018-02-13T11:10:04.718Z,10
2018-02-13T11:11:05.008Z,10
2018-02-13T11:12:05.018Z,10
2018-02-13T11:13:04.744Z,10
2018-02-13T11:14:05.415Z,10
2018-02-13T11:15:05.330Z,10
2018-02-13T11:16:04.499Z,10
2018-02-13T11:17:05.358Z,10
2018-02-13T11:18:05.650Z,10
2018-02-13T11:19:05.157Z,10
2018-02-13T11:20:05.110Z,10
2018-02-13T11:21:05.123Z,10
2018-02-13T11:22:05.198Z,10
2018-02-13T11:23:05.423Z,10
2018-02-13T11:24:05.184Z,10
2018-02-13T11:25:05.168Z,10
2018-02-13T11:26:04.614Z,10
2018-02-13T11:27:05.518Z,10
2018-02-13T11:28:04.925Z,10
2018-02-13T11:29:04.653Z,10
2018-02-13T11:30:04.974Z,10
2018-02-13T11:31:05.518Z,10
2018-02-13T11:32:05.319Z,10
2018-02-13T11:33:05.544Z,10
2018-02-13T11:34:05.270Z,10
2018-02-13T11:35:05.285Z,10
2018-02-13T11:36:05.030Z,10
2018-02-13T11:37:05.408Z,10
2018-02-13T11:38:05.648Z,10
2018-02-13T11:39:05.616Z,10
2018-02-13T11:40:05.627Z,10
2018-02-13T11:41:05.363Z,10
2018-02-13T11:42:05.730Z,10
2018-02-13T11:43:05.377Z,10
2018-02-13T11:44:05.200Z,10
2018-02-13T11:45:05.120Z,10
2018-02-13T11:46:04.884Z,10
2018-02-13T11:47:05.476Z,10
2018-02-13T11:48:05.257Z,10
2018-02-13T11:49:05.173Z,10
2018-02-13T11:50:05.762Z,10
2018-02-13T11:51:05.479Z,10
2018-02-13T11:52:05.556Z,10
2018-02-13T11:53:05.511Z,10
2018-02-13T11:54:05.521Z,10
2018-02-13T11:55:05.532Z,10
2018-02-13T11:56:05.326Z,10
2018-02-13T11:57:05.881Z,10
2018-02-13T11:58:04.995Z,10
2018-02-13T11:59:05.854Z,10
2018-02-13T12:00:05.025Z,10
2018-02-13T12:01:05.599Z,10
2018-02-13T12:02:05.350Z,10
2018-02-13T12:03:05.673Z,10
2018-02-13T12:04:06.197Z,10
2018-02-13T12:05:05.647Z,10
2018-02-13T12:06:05.700Z,10
2018-02-13T12:07:05.962Z,10
2018-02-13T12:08:05.481Z,10
2018-02-13T12:09:05.692Z,10
2018-02-13T12:10:06.279Z,10
2018-02-13T12:11:06.018Z,10
2018-02-13T12:12:06.015Z,15
2018-02-13T12:13:05.794Z,15
2018-02-13T12:14:06.068Z,25
2018-02-13T12:15:05.769Z,30
2018-02-13T12:16:06.070Z,35
2018-02-13T12:17:05.797Z,30
2018-02-13T12:18:06.145Z,30
2018-02-13T12:19:05.840Z,25
2018-02-13T12:20:05.547Z,15
2018-02-13T12:21:05.569Z,15
2018-02-13T12:22:05.878Z,10
2018-02-13T12:23:05.373Z,10
2018-02-13T12:24:06.181Z,10
2018-02-13T12:25:05.892Z,15
2018-02-13T12:26:05.910Z,15
2018-02-13T12:27:05.973Z,20
2018-02-13T12:28:05.724Z,15
2018-02-13T12:29:05.943Z,15
2018-02-13T12:30:06.527Z,10
2018-02-13T12:31:06.252Z,15
2018-02-13T12:32:05.714Z,15
2018-02-13T12:33:06.043Z,10
2018-02-13T12:34:06.007Z,10
2018-02-13T12:35:06.305Z,10
2018-02-13T12:36:06.594Z,15
2018-02-13T12:37:06.328Z,20
2018-02-13T12:38:06.390Z,25
2018-02-13T12:39:06.074Z,25
2018-02-13T12:40:06.370Z,20
2018-02-13T12:41:05.549Z,20
2018-02-13T12:42:06.106Z,15
2018-02-13T12:43:05.903Z,15
2018-02-13T12:44:06.700Z,15
2018-02-13T12:45:06.160Z,15
2018-02-13T12:46:06.441Z,15
2018-02-13T12:47:05.902Z,15
2018-02-13T12:48:06.799Z,15
2018-02-13T12:49:06.823Z,15
2018-02-13T12:50:06.225Z,15
2018-02-13T12:51:06.224Z,15
2018-02-13T12:52:06.807Z,15
2018-02-13T12:53:06.249Z,15
2018-02-13T12:54:05.982Z,10
2018-02-13T12:55:06.274Z,10
2018-02-13T12:56:06.574Z,10
2018-02-13T12:57:06.580Z,10
2018-02-13T12:58:06.093Z,15
2018-02-13T12:59:06.615Z,15
2018-02-13T13:00:06.687Z,15
2018-02-13T13:01:05.788Z,15
2018-02-13T13:02:06.083Z,15
2018-02-13T13:03:06.426Z,15
2018-02-13T13:04:06.117Z,10
2018-02-13T13:05:06.964Z,10
2018-02-13T13:06:06.703Z,10
2018-02-13T13:07:06.145Z,10
2018-02-13T13:08:06.312Z,10
2018-02-13T13:09:06.455Z,10
2018-02-13T13:10:06.750Z,10
2018-02-13T13:11:06.771Z,10
2018-02-13T13:12:06.520Z,10
2018-02-13T13:13:06.277Z,10
2018-02-13T13:14:06.802Z,10
2018-02-13T13:15:06.817Z,10
2018-02-13T13:16:06.272Z,10
2018-02-13T13:17:06.279Z,10
2018-02-13T13:18:07.133Z,10
2018-02-13T13:19:06.585Z,10
2018-02-13T13:20:06.599Z,10
2018-02-13T13:21:06.998Z,10
2018-02-13T13:22:06.906Z,10
2018-02-13T13:23:06.639Z,15
2018-02-13T13:24:06.362Z,15
2018-02-13T13:25:06.655Z,15
2018-02-13T13:26:06.977Z,15
2018-02-13T13:27:07.253Z,15
2018-02-13T13:28:07.025Z,15
2018-02-13T13:29:06.988Z,10
2018-02-13T13:30:06.436Z,10
2018-02-13T13:31:06.456Z,10
2018-02-13T13:32:07.032Z,10
2018-02-13T13:33:06.805Z,10
2018-02-13T13:34:06.771Z,10
2018-02-13T13:35:06.829Z,10
2018-02-13T13:36:07.385Z,10
2018-02-13T13:37:06.248Z,10
2018-02-13T13:38:07.105Z,10
2018-02-13T13:39:06.839Z,10
2018-02-13T13:40:06.854Z,10
2018-02-13T13:41:06.861Z,10
2018-02-13T13:42:06.880Z,10
2018-02-13T13:43:07.227Z,10
2018-02-13T13:44:06.907Z,10
2018-02-13T13:45:07.198Z,10
2018-02-13T13:46:07.537Z,10
2018-02-13T13:47:07.504Z,10
2018-02-13T13:48:06.723Z,10
2018-02-13T13:49:06.971Z,10
2018-02-13T13:50:07.265Z,10
2018-02-13T13:51:06.995Z,10
2018-02-13T13:52:07.008Z,10
2018-02-13T13:53:06.742Z,10
2018-02-13T13:54:06.757Z,10
2018-02-13T13:55:07.059Z,10
2018-02-13T13:56:06.793Z,10
2018-02-13T13:57:07.356Z,10
2018-02-13T13:58:07.422Z,10
2018-02-13T13:59:07.380Z,10
2018-02-13T14:00:07.398Z,10
2018-02-13T14:01:07.126Z,5
2018-02-13T14:02:06.876Z,5
2018-02-13T14:03:07.485Z,5
2018-02-13T14:04:07.168Z,10
2018-02-13T14:05:07.178Z,10
2018-02-13T14:06:06.636Z,10
2018-02-13T14:07:06.929Z,10
2018-02-13T14:08:07.318Z,10
2018-02-13T14:09:07.518Z,10
2018-02-13T14:10:07.553Z,10
2018-02-13T14:11:07.264Z,10
2018-02-13T14:12:07.277Z,10
2018-02-13T14:13:07.079Z,10
2018-02-13T14:14:07.305Z,10
2018-02-13T14:15:07.038Z,10
2018-02-13T14:16:07.335Z,10
2018-02-13T14:17:07.630Z,10
2018-02-13T14:18:07.381Z,10
2018-02-13T14:19:07.095Z,10
2018-02-13T14:20:07.390Z,10
2018-02-13T14:21:07.398Z,10
2018-02-13T14:22:07.442Z,10
2018-02-13T14:23:07.426Z,10
2018-02-13T14:24:07.739Z,10
2018-02-13T14:25:08.028Z,10
2018-02-13T14:26:07.200Z,10
2018-02-13T14:27:07.484Z,10
2018-02-13T14:28:07.775Z,10
2018-02-13T14:29:07.230Z,10
2018-02-13T14:30:07.543Z,10
2018-02-13T14:31:07.575Z,10
2018-02-13T14:32:06.997Z,10
2018-02-13T14:33:07.005Z,10
2018-02-13T14:34:07.582Z,10
2018-02-13T14:35:07.873Z,10
2018-02-13T14:36:07.680Z,10
2018-02-13T14:37:07.627Z,10
2018-02-13T14:38:07.434Z,10
2018-02-13T14:39:07.643Z,10
2018-02-13T14:40:07.955Z,10